sensor_id;sensor_type;location;lat;lon;timestamp;P1;durP1;ratioP1;P2;durP2;ratioP2
18596;SDS011;9428;50.950;6.912;2023-03-01T00:00:33;8.03;;;4.63;;
18596;SDS011;9428;50.950;6.912;2023-03-01T00:03:20;16.47;;;5.40;;
18596;SDS011;9428;50.950;6.912;2023-03-01T00:06:08;7.00;;;4.83;;
18596;SDS011;9428;50.950;6.912;2023-03-01T00:08:55;5.60;;;4.10;;
18596;SDS011;9428;50.950;6.912;2023-03-01T00:11:43;7.03;;;4.57;;
18596;SDS011;9428;50.950;6.912;2023-03-01T00:14:31;5.67;;;4.57;;
18596;SDS011;9428;50.950;6.912;2023-03-01T00:17:19;6.83;;;4.87;;
18596;SDS011;9428;50.950;6.912;2023-03-01T00:20:07;6.83;;;4.70;;
18596;SDS011;9428;50.950;6.912;2023-03-01T00:22:55;9.17;;;5.37;;
18596;SDS011;9428;50.950;6.912;2023-03-01T00:25:42;7.47;;;5.00;;
18596;SDS011;9428;50.950;6.912;2023-03-01T00:28:31;10.00;;;5.80;;
18596;SDS011;9428;50.950;6.912;2023-03-01T00:31:20;8.40;;;5.10;;
18596;SDS011;9428;50.950;6.912;2023-03-01T00:34:09;8.30;;;4.87;;
18596;SDS011;9428;50.950;6.912;2023-03-01T00:36:56;8.83;;;5.03;;
18596;SDS011;9428;50.950;6.912;2023-03-01T00:39:50;9.17;;;5.43;;
18596;SDS011;9428;50.950;6.912;2023-03-01T00:42:37;6.87;;;4.73;;
18596;SDS011;9428;50.950;6.912;2023-03-01T00:45:24;8.23;;;5.00;;
18596;SDS011;9428;50.950;6.912;2023-03-01T00:48:13;9.37;;;4.80;;
18596;SDS011;9428;50.950;6.912;2023-03-01T00:51:04;8.93;;;4.77;;
18596;SDS011;9428;50.950;6.912;2023-03-01T00:53:53;8.97;;;4.90;;
18596;SDS011;9428;50.950;6.912;2023-03-01T00:56:42;8.70;;;5.43;;
18596;SDS011;9428;50.950;6.912;2023-03-01T00:59:29;9.20;;;5.60;;
18596;SDS011;9428;50.950;6.912;2023-03-01T01:02:16;10.67;;;5.33;;
18596;SDS011;9428;50.950;6.912;2023-03-01T01:05:05;10.20;;;5.50;;
18596;SDS011;9428;50.950;6.912;2023-03-01T01:07:53;17.53;;;7.83;;
18596;SDS011;9428;50.950;6.912;2023-03-01T01:10:41;8.03;;;4.50;;
18596;SDS011;9428;50.950;6.912;2023-03-01T01:13:30;9.67;;;5.00;;
18596;SDS011;9428;50.950;6.912;2023-03-01T01:16:17;8.63;;;4.63;;
18596;SDS011;9428;50.950;6.912;2023-03-01T01:19:06;7.53;;;5.13;;
18596;SDS011;9428;50.950;6.912;2023-03-01T01:21:55;8.53;;;5.30;;
18596;SDS011;9428;50.950;6.912;2023-03-01T01:24:42;10.17;;;5.37;;
18596;SDS011;9428;50.950;6.912;2023-03-01T01:27:30;7.97;;;4.67;;
18596;SDS011;9428;50.950;6.912;2023-03-01T01:30:17;8.37;;;5.07;;
18596;SDS011;9428;50.950;6.912;2023-03-01T01:33:04;8.60;;;5.60;;
18596;SDS011;9428;50.950;6.912;2023-03-01T01:35:51;8.67;;;5.40;;
18596;SDS011;9428;50.950;6.912;2023-03-01T01:38:40;9.67;;;5.47;;
18596;SDS011;9428;50.950;6.912;2023-03-01T01:41:28;9.13;;;5.20;;
18596;SDS011;9428;50.950;6.912;2023-03-01T01:44:16;7.70;;;5.37;;
18596;SDS011;9428;50.950;6.912;2023-03-01T01:47:06;7.77;;;4.37;;
18596;SDS011;9428;50.950;6.912;2023-03-01T01:49:58;10.10;;;5.77;;
18596;SDS011;9428;50.950;6.912;2023-03-01T01:52:46;9.03;;;5.43;;
18596;SDS011;9428;50.950;6.912;2023-03-01T01:55:39;8.20;;;4.93;;
18596;SDS011;9428;50.950;6.912;2023-03-01T01:58:31;9.30;;;4.80;;
18596;SDS011;9428;50.950;6.912;2023-03-01T02:01:19;8.30;;;5.17;;
18596;SDS011;9428;50.950;6.912;2023-03-01T02:04:06;7.93;;;5.47;;
18596;SDS011;9428;50.950;6.912;2023-03-01T02:06:55;8.67;;;5.30;;
18596;SDS011;9428;50.950;6.912;2023-03-01T02:09:47;8.77;;;5.03;;
18596;SDS011;9428;50.950;6.912;2023-03-01T02:12:37;14.57;;;5.00;;
18596;SDS011;9428;50.950;6.912;2023-03-01T02:15:26;8.07;;;5.10;;
18596;SDS011;9428;50.950;6.912;2023-03-01T02:18:14;10.03;;;5.60;;
18596;SDS011;9428;50.950;6.912;2023-03-01T02:21:08;7.87;;;5.10;;
18596;SDS011;9428;50.950;6.912;2023-03-01T02:24:05;7.40;;;5.33;;
18596;SDS011;9428;50.950;6.912;2023-03-01T02:27:02;10.63;;;5.30;;
18596;SDS011;9428;50.950;6.912;2023-03-01T02:29:50;9.87;;;5.40;;
18596;SDS011;9428;50.950;6.912;2023-03-01T02:32:38;8.33;;;4.97;;
18596;SDS011;9428;50.950;6.912;2023-03-01T02:35:27;8.40;;;5.07;;
18596;SDS011;9428;50.950;6.912;2023-03-01T02:38:15;12.30;;;5.30;;
18596;SDS011;9428;50.950;6.912;2023-03-01T02:41:02;7.50;;;5.50;;
18596;SDS011;9428;50.950;6.912;2023-03-01T02:43:52;8.00;;;5.30;;
18596;SDS011;9428;50.950;6.912;2023-03-01T02:46:45;8.73;;;5.40;;
18596;SDS011;9428;50.950;6.912;2023-03-01T02:49:34;10.30;;;6.00;;
18596;SDS011;9428;50.950;6.912;2023-03-01T02:52:26;10.03;;;6.40;;
18596;SDS011;9428;50.950;6.912;2023-03-01T02:55:23;7.57;;;5.20;;
18596;SDS011;9428;50.950;6.912;2023-03-01T02:58:10;8.03;;;5.33;;
18596;SDS011;9428;50.950;6.912;2023-03-01T03:00:58;8.57;;;5.40;;
18596;SDS011;9428;50.950;6.912;2023-03-01T03:03:47;7.83;;;5.30;;
18596;SDS011;9428;50.950;6.912;2023-03-01T03:06:34;10.17;;;5.63;;
18596;SDS011;9428;50.950;6.912;2023-03-01T03:09:23;8.90;;;5.97;;
18596;SDS011;9428;50.950;6.912;2023-03-01T03:12:11;7.37;;;5.33;;
18596;SDS011;9428;50.950;6.912;2023-03-01T03:14:58;13.63;;;5.40;;
18596;SDS011;9428;50.950;6.912;2023-03-01T03:17:45;8.83;;;6.10;;
18596;SDS011;9428;50.950;6.912;2023-03-01T03:20:34;12.07;;;6.10;;
18596;SDS011;9428;50.950;6.912;2023-03-01T03:23:23;13.30;;;6.63;;
18596;SDS011;9428;50.950;6.912;2023-03-01T03:26:10;11.10;;;5.80;;
18596;SDS011;9428;50.950;6.912;2023-03-01T03:29:00;11.53;;;5.50;;
18596;SDS011;9428;50.950;6.912;2023-03-01T03:31:47;11.53;;;6.23;;
18596;SDS011;9428;50.950;6.912;2023-03-01T03:34:35;8.50;;;5.90;;
18596;SDS011;9428;50.950;6.912;2023-03-01T03:37:23;8.47;;;5.93;;
18596;SDS011;9428;50.950;6.912;2023-03-01T03:40:28;9.23;;;5.87;;
18596;SDS011;9428;50.950;6.912;2023-03-01T03:43:18;14.80;;;6.30;;
18596;SDS011;9428;50.950;6.912;2023-03-01T03:46:06;8.47;;;6.23;;
18596;SDS011;9428;50.950;6.912;2023-03-01T03:48:53;13.57;;;6.00;;
18596;SDS011;9428;50.950;6.912;2023-03-01T03:51:41;12.17;;;6.10;;
18596;SDS011;9428;50.950;6.912;2023-03-01T03:54:29;12.53;;;6.83;;
18596;SDS011;9428;50.950;6.912;2023-03-01T03:57:16;9.67;;;6.27;;
18596;SDS011;9428;50.950;6.912;2023-03-01T04:00:04;13.03;;;6.93;;
18596;SDS011;9428;50.950;6.912;2023-03-01T04:02:57;11.70;;;7.50;;
18596;SDS011;9428;50.950;6.912;2023-03-01T04:05:46;10.57;;;6.33;;
18596;SDS011;9428;50.950;6.912;2023-03-01T04:08:35;10.20;;;6.40;;
18596;SDS011;9428;50.950;6.912;2023-03-01T04:11:24;12.70;;;7.17;;
18596;SDS011;9428;50.950;6.912;2023-03-01T04:14:13;12.17;;;7.47;;
18596;SDS011;9428;50.950;6.912;2023-03-01T04:17:00;15.77;;;6.87;;
18596;SDS011;9428;50.950;6.912;2023-03-01T04:19:50;15.20;;;7.97;;
18596;SDS011;9428;50.950;6.912;2023-03-01T04:22:38;12.03;;;6.93;;
18596;SDS011;9428;50.950;6.912;2023-03-01T04:25:26;13.60;;;7.07;;
18596;SDS011;9428;50.950;6.912;2023-03-01T04:28:15;13.70;;;6.70;;
18596;SDS011;9428;50.950;6.912;2023-03-01T04:31:04;15.33;;;6.83;;
18596;SDS011;9428;50.950;6.912;2023-03-01T04:33:58;15.73;;;7.27;;
18596;SDS011;9428;50.950;6.912;2023-03-01T04:36:45;10.27;;;6.30;;
18596;SDS011;9428;50.950;6.912;2023-03-01T04:39:32;12.50;;;6.17;;
18596;SDS011;9428;50.950;6.912;2023-03-01T04:42:31;10.70;;;6.90;;
18596;SDS011;9428;50.950;6.912;2023-03-01T04:45:19;10.57;;;6.37;;
18596;SDS011;9428;50.950;6.912;2023-03-01T04:48:06;10.37;;;7.03;;
18596;SDS011;9428;50.950;6.912;2023-03-01T04:50:54;11.97;;;6.67;;
18596;SDS011;9428;50.950;6.912;2023-03-01T04:53:41;9.70;;;6.20;;
18596;SDS011;9428;50.950;6.912;2023-03-01T04:56:29;10.87;;;6.33;;
18596;SDS011;9428;50.950;6.912;2023-03-01T04:59:17;11.43;;;6.53;;
18596;SDS011;9428;50.950;6.912;2023-03-01T05:02:09;10.30;;;6.53;;
18596;SDS011;9428;50.950;6.912;2023-03-01T05:04:56;9.70;;;6.13;;
18596;SDS011;9428;50.950;6.912;2023-03-01T05:07:43;14.10;;;6.23;;
18596;SDS011;9428;50.950;6.912;2023-03-01T05:10:31;13.17;;;6.70;;
18596;SDS011;9428;50.950;6.912;2023-03-01T05:13:20;12.53;;;6.53;;
18596;SDS011;9428;50.950;6.912;2023-03-01T05:16:08;12.37;;;7.27;;
18596;SDS011;9428;50.950;6.912;2023-03-01T05:18:58;12.87;;;6.67;;
18596;SDS011;9428;50.950;6.912;2023-03-01T05:21:45;13.33;;;6.83;;
18596;SDS011;9428;50.950;6.912;2023-03-01T05:24:49;12.53;;;6.97;;
18596;SDS011;9428;50.950;6.912;2023-03-01T05:27:36;13.87;;;7.83;;
18596;SDS011;9428;50.950;6.912;2023-03-01T05:30:23;15.37;;;7.60;;
18596;SDS011;9428;50.950;6.912;2023-03-01T05:33:11;13.47;;;7.27;;
18596;SDS011;9428;50.950;6.912;2023-03-01T05:36:00;12.80;;;7.23;;
18596;SDS011;9428;50.950;6.912;2023-03-01T05:38:48;11.93;;;7.53;;
18596;SDS011;9428;50.950;6.912;2023-03-01T05:41:35;16.10;;;8.13;;
18596;SDS011;9428;50.950;6.912;2023-03-01T05:44:22;13.47;;;7.10;;
18596;SDS011;9428;50.950;6.912;2023-03-01T05:47:10;13.57;;;7.67;;
18596;SDS011;9428;50.950;6.912;2023-03-01T05:49:57;13.07;;;7.93;;
18596;SDS011;9428;50.950;6.912;2023-03-01T05:52:47;15.83;;;8.07;;
18596;SDS011;9428;50.950;6.912;2023-03-01T05:55:36;13.47;;;7.77;;
18596;SDS011;9428;50.950;6.912;2023-03-01T05:58:24;15.00;;;7.90;;
18596;SDS011;9428;50.950;6.912;2023-03-01T06:01:12;15.80;;;8.70;;
18596;SDS011;9428;50.950;6.912;2023-03-01T06:03:59;17.33;;;8.47;;
18596;SDS011;9428;50.950;6.912;2023-03-01T06:06:46;17.93;;;8.03;;
18596;SDS011;9428;50.950;6.912;2023-03-01T06:09:35;16.43;;;8.00;;
18596;SDS011;9428;50.950;6.912;2023-03-01T06:12:22;10.83;;;7.20;;
18596;SDS011;9428;50.950;6.912;2023-03-01T06:15:10;14.90;;;8.07;;
18596;SDS011;9428;50.950;6.912;2023-03-01T06:17:58;17.33;;;8.10;;
18596;SDS011;9428;50.950;6.912;2023-03-01T06:20:51;16.73;;;8.07;;
18596;SDS011;9428;50.950;6.912;2023-03-01T06:23:39;20.80;;;8.10;;
18596;SDS011;9428;50.950;6.912;2023-03-01T06:26:28;17.80;;;8.40;;
18596;SDS011;9428;50.950;6.912;2023-03-01T06:29:15;21.13;;;8.97;;
18596;SDS011;9428;50.950;6.912;2023-03-01T06:32:02;20.60;;;8.37;;
18596;SDS011;9428;50.950;6.912;2023-03-01T06:34:50;18.30;;;9.50;;
18596;SDS011;9428;50.950;6.912;2023-03-01T06:37:37;23.47;;;8.93;;
18596;SDS011;9428;50.950;6.912;2023-03-01T06:40:24;18.70;;;8.73;;
18596;SDS011;9428;50.950;6.912;2023-03-01T06:43:13;14.47;;;8.37;;
18596;SDS011;9428;50.950;6.912;2023-03-01T06:46:03;18.27;;;9.00;;
18596;SDS011;9428;50.950;6.912;2023-03-01T06:48:52;25.07;;;8.30;;
18596;SDS011;9428;50.950;6.912;2023-03-01T06:51:39;21.93;;;10.10;;
18596;SDS011;9428;50.950;6.912;2023-03-01T06:54:26;14.07;;;9.40;;
18596;SDS011;9428;50.950;6.912;2023-03-01T06:57:13;18.47;;;8.70;;
18596;SDS011;9428;50.950;6.912;2023-03-01T07:00:02;16.77;;;8.90;;
18596;SDS011;9428;50.950;6.912;2023-03-01T07:02:50;25.83;;;9.23;;
18596;SDS011;9428;50.950;6.912;2023-03-01T07:05:37;21.50;;;8.63;;
18596;SDS011;9428;50.950;6.912;2023-03-01T07:08:25;21.13;;;9.77;;
18596;SDS011;9428;50.950;6.912;2023-03-01T07:11:12;18.23;;;8.97;;
18596;SDS011;9428;50.950;6.912;2023-03-01T07:13:59;17.67;;;8.70;;
18596;SDS011;9428;50.950;6.912;2023-03-01T07:16:48;18.53;;;9.07;;
18596;SDS011;9428;50.950;6.912;2023-03-01T07:19:35;32.17;;;10.77;;
18596;SDS011;9428;50.950;6.912;2023-03-01T07:22:22;22.83;;;10.00;;
18596;SDS011;9428;50.950;6.912;2023-03-01T07:25:10;17.63;;;9.03;;
18596;SDS011;9428;50.950;6.912;2023-03-01T07:27:57;18.03;;;9.20;;
18596;SDS011;9428;50.950;6.912;2023-03-01T07:30:45;18.50;;;9.47;;
18596;SDS011;9428;50.950;6.912;2023-03-01T07:33:33;18.60;;;9.97;;
18596;SDS011;9428;50.950;6.912;2023-03-01T07:36:20;15.53;;;9.70;;
18596;SDS011;9428;50.950;6.912;2023-03-01T07:39:09;18.03;;;10.07;;
18596;SDS011;9428;50.950;6.912;2023-03-01T07:41:56;17.47;;;9.70;;
18596;SDS011;9428;50.950;6.912;2023-03-01T07:44:43;15.97;;;9.47;;
18596;SDS011;9428;50.950;6.912;2023-03-01T07:47:30;15.50;;;9.43;;
18596;SDS011;9428;50.950;6.912;2023-03-01T07:50:19;14.20;;;8.93;;
18596;SDS011;9428;50.950;6.912;2023-03-01T07:53:07;16.73;;;9.43;;
18596;SDS011;9428;50.950;6.912;2023-03-01T07:56:01;19.43;;;9.57;;
18596;SDS011;9428;50.950;6.912;2023-03-01T07:58:50;20.30;;;10.17;;
18596;SDS011;9428;50.950;6.912;2023-03-01T08:01:37;18.27;;;10.07;;
18596;SDS011;9428;50.950;6.912;2023-03-01T08:04:24;17.20;;;10.17;;
18596;SDS011;9428;50.950;6.912;2023-03-01T08:07:13;19.70;;;10.03;;
18596;SDS011;9428;50.950;6.912;2023-03-01T08:10:00;17.93;;;9.93;;
18596;SDS011;9428;50.950;6.912;2023-03-01T08:12:47;16.30;;;10.03;;
18596;SDS011;9428;50.950;6.912;2023-03-01T08:15:37;19.00;;;9.97;;
18596;SDS011;9428;50.950;6.912;2023-03-01T08:18:24;15.73;;;9.10;;
18596;SDS011;9428;50.950;6.912;2023-03-01T08:21:12;16.20;;;9.17;;
18596;SDS011;9428;50.950;6.912;2023-03-01T08:24:02;12.97;;;8.93;;
18596;SDS011;9428;50.950;6.912;2023-03-01T08:26:51;14.37;;;9.30;;
18596;SDS011;9428;50.950;6.912;2023-03-01T08:29:38;15.50;;;10.10;;
18596;SDS011;9428;50.950;6.912;2023-03-01T08:32:25;15.93;;;9.40;;
18596;SDS011;9428;50.950;6.912;2023-03-01T08:35:12;16.23;;;9.60;;
18596;SDS011;9428;50.950;6.912;2023-03-01T08:37:59;16.07;;;10.43;;
18596;SDS011;9428;50.950;6.912;2023-03-01T08:40:48;15.10;;;9.30;;
18596;SDS011;9428;50.950;6.912;2023-03-01T08:43:35;17.70;;;9.67;;
18596;SDS011;9428;50.950;6.912;2023-03-01T08:46:22;15.43;;;9.33;;
18596;SDS011;9428;50.950;6.912;2023-03-01T08:49:11;13.97;;;8.57;;
18596;SDS011;9428;50.950;6.912;2023-03-01T08:51:59;21.80;;;9.90;;
18596;SDS011;9428;50.950;6.912;2023-03-01T08:54:47;15.00;;;9.33;;
18596;SDS011;9428;50.950;6.912;2023-03-01T08:57:35;15.83;;;10.17;;
18596;SDS011;9428;50.950;6.912;2023-03-01T09:00:22;13.17;;;8.77;;
18596;SDS011;9428;50.950;6.912;2023-03-01T09:03:10;15.67;;;9.20;;
18596;SDS011;9428;50.950;6.912;2023-03-01T09:05:59;14.83;;;8.83;;
18596;SDS011;9428;50.950;6.912;2023-03-01T09:08:48;16.83;;;8.97;;
18596;SDS011;9428;50.950;6.912;2023-03-01T09:11:36;18.33;;;10.33;;
18596;SDS011;9428;50.950;6.912;2023-03-01T09:14:24;13.93;;;8.90;;
18596;SDS011;9428;50.950;6.912;2023-03-01T09:17:12;19.30;;;10.00;;
18596;SDS011;9428;50.950;6.912;2023-03-01T09:19:59;14.97;;;8.43;;
18596;SDS011;9428;50.950;6.912;2023-03-01T09:22:46;12.50;;;8.07;;
18596;SDS011;9428;50.950;6.912;2023-03-01T09:25:33;16.77;;;8.03;;
18596;SDS011;9428;50.950;6.912;2023-03-01T09:28:21;17.13;;;8.33;;
18596;SDS011;9428;50.950;6.912;2023-03-01T09:31:10;13.70;;;8.23;;
18596;SDS011;9428;50.950;6.912;2023-03-01T09:33:58;15.77;;;8.57;;
18596;SDS011;9428;50.950;6.912;2023-03-01T09:36:47;13.77;;;8.37;;
18596;SDS011;9428;50.950;6.912;2023-03-01T09:39:34;13.83;;;8.33;;
18596;SDS011;9428;50.950;6.912;2023-03-01T09:42:22;13.47;;;8.00;;
18596;SDS011;9428;50.950;6.912;2023-03-01T09:45:11;14.47;;;7.43;;
18596;SDS011;9428;50.950;6.912;2023-03-01T09:48:08;12.20;;;7.93;;
18596;SDS011;9428;50.950;6.912;2023-03-01T09:51:01;15.37;;;7.97;;
18596;SDS011;9428;50.950;6.912;2023-03-01T09:53:53;13.80;;;7.87;;
18596;SDS011;9428;50.950;6.912;2023-03-01T09:56:44;11.60;;;7.23;;
18596;SDS011;9428;50.950;6.912;2023-03-01T09:59:44;11.33;;;6.67;;
18596;SDS011;9428;50.950;6.912;2023-03-01T10:02:39;15.57;;;8.10;;
18596;SDS011;9428;50.950;6.912;2023-03-01T10:05:40;14.30;;;7.37;;
18596;SDS011;9428;50.950;6.912;2023-03-01T10:08:34;13.10;;;8.03;;
18596;SDS011;9428;50.950;6.912;2023-03-01T10:11:28;13.67;;;8.03;;
18596;SDS011;9428;50.950;6.912;2023-03-01T10:14:20;15.87;;;8.63;;
18596;SDS011;9428;50.950;6.912;2023-03-01T10:17:19;12.97;;;7.90;;
18596;SDS011;9428;50.950;6.912;2023-03-01T10:20:17;16.23;;;8.77;;
18596;SDS011;9428;50.950;6.912;2023-03-01T10:23:08;12.70;;;7.80;;
18596;SDS011;9428;50.950;6.912;2023-03-01T10:26:02;12.87;;;7.33;;
18596;SDS011;9428;50.950;6.912;2023-03-01T10:29:00;11.57;;;7.37;;
18596;SDS011;9428;50.950;6.912;2023-03-01T10:31:50;15.43;;;7.90;;
18596;SDS011;9428;50.950;6.912;2023-03-01T10:34:39;13.83;;;8.17;;
18596;SDS011;9428;50.950;6.912;2023-03-01T10:37:26;13.00;;;8.10;;
18596;SDS011;9428;50.950;6.912;2023-03-01T10:40:16;14.30;;;7.77;;
18596;SDS011;9428;50.950;6.912;2023-03-01T10:43:05;12.97;;;7.83;;
18596;SDS011;9428;50.950;6.912;2023-03-01T10:45:52;13.23;;;7.73;;
18596;SDS011;9428;50.950;6.912;2023-03-01T10:48:40;15.43;;;8.23;;
18596;SDS011;9428;50.950;6.912;2023-03-01T10:51:27;14.60;;;8.30;;
18596;SDS011;9428;50.950;6.912;2023-03-01T10:54:18;19.03;;;8.47;;
18596;SDS011;9428;50.950;6.912;2023-03-01T10:57:10;12.47;;;7.70;;
18596;SDS011;9428;50.950;6.912;2023-03-01T11:00:17;16.07;;;7.70;;
18596;SDS011;9428;50.950;6.912;2023-03-01T11:03:11;12.77;;;8.23;;
18596;SDS011;9428;50.950;6.912;2023-03-01T11:06:00;13.10;;;7.93;;
18596;SDS011;9428;50.950;6.912;2023-03-01T11:08:50;13.80;;;8.53;;
18596;SDS011;9428;50.950;6.912;2023-03-01T11:11:39;11.20;;;7.53;;
18596;SDS011;9428;50.950;6.912;2023-03-01T11:14:28;14.00;;;8.07;;
18596;SDS011;9428;50.950;6.912;2023-03-01T11:17:21;12.50;;;8.23;;
18596;SDS011;9428;50.950;6.912;2023-03-01T11:20:15;13.60;;;8.10;;
18596;SDS011;9428;50.950;6.912;2023-03-01T11:23:10;13.87;;;7.73;;
18596;SDS011;9428;50.950;6.912;2023-03-01T11:26:01;16.63;;;8.47;;
18596;SDS011;9428;50.950;6.912;2023-03-01T11:28:53;13.80;;;8.13;;
18596;SDS011;9428;50.950;6.912;2023-03-01T11:31:46;14.37;;;7.50;;
18596;SDS011;9428;50.950;6.912;2023-03-01T11:34:39;12.73;;;8.00;;
18596;SDS011;9428;50.950;6.912;2023-03-01T11:37:32;13.63;;;7.90;;
18596;SDS011;9428;50.950;6.912;2023-03-01T11:40:24;13.20;;;6.37;;
18596;SDS011;9428;50.950;6.912;2023-03-01T11:43:15;14.57;;;7.20;;
18596;SDS011;9428;50.950;6.912;2023-03-01T11:49:34;11.27;;;7.60;;
18596;SDS011;9428;50.950;6.912;2023-03-01T11:52:36;10.73;;;6.97;;
18596;SDS011;9428;50.950;6.912;2023-03-01T11:55:46;13.13;;;8.13;;
18596;SDS011;9428;50.950;6.912;2023-03-01T11:58:45;14.90;;;7.77;;
18596;SDS011;9428;50.950;6.912;2023-03-01T12:01:54;15.10;;;8.07;;
18596;SDS011;9428;50.950;6.912;2023-03-01T12:05:08;11.00;;;7.23;;
18596;SDS011;9428;50.950;6.912;2023-03-01T12:08:11;13.07;;;7.37;;
18596;SDS011;9428;50.950;6.912;2023-03-01T12:11:07;14.77;;;7.10;;
18596;SDS011;9428;50.950;6.912;2023-03-01T12:14:09;12.60;;;7.97;;
18596;SDS011;9428;50.950;6.912;2023-03-01T12:20:43;14.43;;;7.70;;
18596;SDS011;9428;50.950;6.912;2023-03-01T12:23:47;12.23;;;7.03;;
18596;SDS011;9428;50.950;6.912;2023-03-01T12:26:55;15.27;;;8.17;;
18596;SDS011;9428;50.950;6.912;2023-03-01T12:29:59;15.00;;;7.30;;
18596;SDS011;9428;50.950;6.912;2023-03-01T12:33:06;13.77;;;6.93;;
18596;SDS011;9428;50.950;6.912;2023-03-01T12:36:24;9.87;;;6.63;;
18596;SDS011;9428;50.950;6.912;2023-03-01T12:39:24;11.20;;;6.93;;
18596;SDS011;9428;50.950;6.912;2023-03-01T12:42:27;10.27;;;6.73;;
18596;SDS011;9428;50.950;6.912;2023-03-01T12:45:27;9.40;;;6.50;;
18596;SDS011;9428;50.950;6.912;2023-03-01T12:48:30;16.37;;;8.03;;
18596;SDS011;9428;50.950;6.912;2023-03-01T12:51:29;13.43;;;7.50;;
18596;SDS011;9428;50.950;6.912;2023-03-01T12:54:20;12.67;;;7.50;;
18596;SDS011;9428;50.950;6.912;2023-03-01T12:57:15;12.73;;;7.63;;
18596;SDS011;9428;50.950;6.912;2023-03-01T13:00:16;15.97;;;8.53;;
18596;SDS011;9428;50.950;6.912;2023-03-01T13:03:17;10.57;;;6.90;;
18596;SDS011;9428;50.950;6.912;2023-03-01T13:06:12;13.67;;;8.07;;
18596;SDS011;9428;50.950;6.912;2023-03-01T13:09:08;15.50;;;7.70;;
18596;SDS011;9428;50.950;6.912;2023-03-01T13:12:01;11.87;;;7.20;;
18596;SDS011;9428;50.950;6.912;2023-03-01T13:14:48;11.30;;;7.00;;
18596;SDS011;9428;50.950;6.912;2023-03-01T13:17:41;10.40;;;6.97;;
18596;SDS011;9428;50.950;6.912;2023-03-01T13:20:33;9.53;;;7.03;;
18596;SDS011;9428;50.950;6.912;2023-03-01T13:23:35;11.63;;;6.90;;
18596;SDS011;9428;50.950;6.912;2023-03-01T13:26:25;11.60;;;6.40;;
18596;SDS011;9428;50.950;6.912;2023-03-01T13:29:24;11.87;;;6.30;;
18596;SDS011;9428;50.950;6.912;2023-03-01T13:32:18;10.63;;;5.90;;
18596;SDS011;9428;50.950;6.912;2023-03-01T13:38:45;10.10;;;6.93;;
18596;SDS011;9428;50.950;6.912;2023-03-01T13:44:38;9.27;;;6.57;;
18596;SDS011;9428;50.950;6.912;2023-03-01T13:47:27;10.30;;;6.37;;
18596;SDS011;9428;50.950;6.912;2023-03-01T13:50:18;13.20;;;7.13;;
18596;SDS011;9428;50.950;6.912;2023-03-01T13:53:10;15.40;;;7.00;;
18596;SDS011;9428;50.950;6.912;2023-03-01T13:56:06;10.63;;;6.00;;
18596;SDS011;9428;50.950;6.912;2023-03-01T13:58:58;11.60;;;6.30;;
18596;SDS011;9428;50.950;6.912;2023-03-01T14:01:51;8.33;;;5.70;;
18596;SDS011;9428;50.950;6.912;2023-03-01T14:04:38;9.90;;;6.47;;
18596;SDS011;9428;50.950;6.912;2023-03-01T14:07:26;11.63;;;6.33;;
18596;SDS011;9428;50.950;6.912;2023-03-01T14:10:15;12.43;;;6.40;;
18596;SDS011;9428;50.950;6.912;2023-03-01T14:13:07;11.47;;;5.63;;
18596;SDS011;9428;50.950;6.912;2023-03-01T14:16:11;9.03;;;6.30;;
18596;SDS011;9428;50.950;6.912;2023-03-01T14:19:10;7.90;;;5.50;;
18596;SDS011;9428;50.950;6.912;2023-03-01T14:22:05;8.40;;;5.73;;
18596;SDS011;9428;50.950;6.912;2023-03-01T14:25:00;8.73;;;5.63;;
18596;SDS011;9428;50.950;6.912;2023-03-01T14:27:51;10.13;;;5.60;;
18596;SDS011;9428;50.950;6.912;2023-03-01T14:30:42;11.37;;;6.30;;
18596;SDS011;9428;50.950;6.912;2023-03-01T14:33:32;11.40;;;6.47;;
18596;SDS011;9428;50.950;6.912;2023-03-01T14:36:25;10.30;;;6.37;;
18596;SDS011;9428;50.950;6.912;2023-03-01T14:39:17;10.47;;;6.40;;
18596;SDS011;9428;50.950;6.912;2023-03-01T14:42:06;10.97;;;6.70;;
18596;SDS011;9428;50.950;6.912;2023-03-01T14:44:54;11.47;;;5.97;;
18596;SDS011;9428;50.950;6.912;2023-03-01T14:47:43;11.70;;;6.33;;
18596;SDS011;9428;50.950;6.912;2023-03-01T14:50:32;11.57;;;6.57;;
18596;SDS011;9428;50.950;6.912;2023-03-01T14:53:23;11.77;;;6.30;;
18596;SDS011;9428;50.950;6.912;2023-03-01T14:56:13;14.13;;;6.70;;
18596;SDS011;9428;50.950;6.912;2023-03-01T14:59:02;9.87;;;6.53;;
18596;SDS011;9428;50.950;6.912;2023-03-01T15:01:50;15.90;;;6.20;;
18596;SDS011;9428;50.950;6.912;2023-03-01T15:04:39;9.73;;;6.03;;
18596;SDS011;9428;50.950;6.912;2023-03-01T15:07:31;8.63;;;5.60;;
18596;SDS011;9428;50.950;6.912;2023-03-01T15:10:22;11.63;;;6.13;;
18596;SDS011;9428;50.950;6.912;2023-03-01T15:13:11;11.80;;;6.00;;
18596;SDS011;9428;50.950;6.912;2023-03-01T15:19:06;13.77;;;5.77;;
18596;SDS011;9428;50.950;6.912;2023-03-01T15:21:54;9.20;;;6.07;;
18596;SDS011;9428;50.950;6.912;2023-03-01T15:24:47;9.03;;;6.00;;
18596;SDS011;9428;50.950;6.912;2023-03-01T15:27:35;14.43;;;6.43;;
18596;SDS011;9428;50.950;6.912;2023-03-01T15:30:22;13.77;;;6.90;;
18596;SDS011;9428;50.950;6.912;2023-03-01T15:33:17;11.00;;;6.27;;
18596;SDS011;9428;50.950;6.912;2023-03-01T15:42:39;14.03;;;6.00;;
18596;SDS011;9428;50.950;6.912;2023-03-01T15:45:26;9.37;;;5.83;;
18596;SDS011;9428;50.950;6.912;2023-03-01T15:48:17;12.87;;;6.13;;
18596;SDS011;9428;50.950;6.912;2023-03-01T15:51:09;11.53;;;6.40;;
18596;SDS011;9428;50.950;6.912;2023-03-01T15:54:00;7.90;;;5.07;;
18596;SDS011;9428;50.950;6.912;2023-03-01T15:56:49;11.30;;;5.67;;
18596;SDS011;9428;50.950;6.912;2023-03-01T15:59:38;13.73;;;6.40;;
18596;SDS011;9428;50.950;6.912;2023-03-01T16:02:25;12.73;;;6.07;;
18596;SDS011;9428;50.950;6.912;2023-03-01T16:05:15;9.23;;;5.57;;
18596;SDS011;9428;50.950;6.912;2023-03-01T16:08:06;11.87;;;6.00;;
18596;SDS011;9428;50.950;6.912;2023-03-01T16:10:53;8.13;;;5.27;;
18596;SDS011;9428;50.950;6.912;2023-03-01T16:13:41;12.07;;;5.93;;
18596;SDS011;9428;50.950;6.912;2023-03-01T16:16:29;12.13;;;6.43;;
18596;SDS011;9428;50.950;6.912;2023-03-01T16:19:16;13.47;;;6.50;;
18596;SDS011;9428;50.950;6.912;2023-03-01T16:22:04;11.77;;;6.53;;
18596;SDS011;9428;50.950;6.912;2023-03-01T16:24:51;11.97;;;5.80;;
18596;SDS011;9428;50.950;6.912;2023-03-01T16:27:38;9.67;;;5.67;;
18596;SDS011;9428;50.950;6.912;2023-03-01T16:30:28;11.53;;;6.00;;
18596;SDS011;9428;50.950;6.912;2023-03-01T16:33:16;12.03;;;6.70;;
18596;SDS011;9428;50.950;6.912;2023-03-01T16:36:07;13.20;;;6.53;;
18596;SDS011;9428;50.950;6.912;2023-03-01T16:38:55;9.80;;;5.73;;
18596;SDS011;9428;50.950;6.912;2023-03-01T16:41:45;12.80;;;6.47;;
18596;SDS011;9428;50.950;6.912;2023-03-01T16:44:32;10.07;;;5.70;;
18596;SDS011;9428;50.950;6.912;2023-03-01T16:47:20;12.87;;;6.33;;
18596;SDS011;9428;50.950;6.912;2023-03-01T16:50:09;10.20;;;6.00;;
18596;SDS011;9428;50.950;6.912;2023-03-01T16:52:57;10.47;;;6.17;;
18596;SDS011;9428;50.950;6.912;2023-03-01T16:55:44;8.00;;;5.60;;
18596;SDS011;9428;50.950;6.912;2023-03-01T16:58:39;11.60;;;5.23;;
18596;SDS011;9428;50.950;6.912;2023-03-01T17:01:27;8.23;;;4.93;;
18596;SDS011;9428;50.950;6.912;2023-03-01T17:04:22;7.43;;;5.30;;
18596;SDS011;9428;50.950;6.912;2023-03-01T17:07:11;9.93;;;5.47;;
18596;SDS011;9428;50.950;6.912;2023-03-01T17:09:59;10.17;;;5.90;;
18596;SDS011;9428;50.950;6.912;2023-03-01T17:12:47;12.97;;;5.60;;
18596;SDS011;9428;50.950;6.912;2023-03-01T17:15:37;10.10;;;4.73;;
18596;SDS011;9428;50.950;6.912;2023-03-01T17:18:25;11.90;;;5.50;;
18596;SDS011;9428;50.950;6.912;2023-03-01T17:21:12;10.27;;;5.30;;
18596;SDS011;9428;50.950;6.912;2023-03-01T17:24:01;11.60;;;5.27;;
18596;SDS011;9428;50.950;6.912;2023-03-01T17:26:48;10.17;;;5.13;;
18596;SDS011;9428;50.950;6.912;2023-03-01T17:29:36;12.33;;;5.87;;
18596;SDS011;9428;50.950;6.912;2023-03-01T17:32:23;9.80;;;6.07;;